Terminal Aerodrome Forecast
Issued by NWS

Home | Current Version | Previous Version | Text Only | Print | Product List | Glossary Off
Versions: 1 2 3 4 5 6 7 8 9 10 11 12 13 14 15 16 17 18

000
FTUS43 KIWX 142320
TAFSBN
TAF
KSBN 142320Z 1500/1524 22005KT P6SM -SN OVC040
     FM150500 21004KT P6SM BKN100
     FM151500 26014G21KT 5SM -SHSN OVC020=

USA.gov is the U.S. government's official web portal to all federal, state and local government web resources and services.